createdAt,value
2023-04-16T00:00:09.043Z,1000.34
2023-04-16T00:00:34.627Z,1000.24
2023-04-16T00:00:56.581Z,1000.24
2023-04-16T00:01:28.375Z,1000.24
2023-04-16T00:02:01.083Z,1000.44
2023-04-16T00:02:32.549Z,1000.44
2023-04-16T00:03:04.484Z,1000.44
2023-04-16T00:03:36.589Z,1000.44
2023-04-16T00:04:08.873Z,1000.34
2023-04-16T00:04:34.714Z,1000.13
2023-04-16T00:04:56.343Z,1000.13
2023-04-16T00:05:28.658Z,1000.13
2023-04-16T00:06:00.939Z,1000.34
2023-04-16T00:06:32.458Z,1000.34
2023-04-16T00:07:04.483Z,1000.13
2023-04-16T00:07:37.815Z,1000.13
2023-04-16T00:08:08.376Z,1000.34
2023-04-16T00:08:34.649Z,1000.13
2023-04-16T00:08:56.415Z,1000.13
2023-04-16T00:09:28.391Z,1000.13
2023-04-16T00:10:02.855Z,1000.24
2023-04-16T00:10:32.508Z,1000.24
2023-04-16T00:11:04.422Z,1000.24
2023-04-16T00:11:36.405Z,1000.24
2023-04-16T00:12:08.425Z,1000.24
2023-04-16T00:12:34.720Z,1000.34
2023-04-16T00:12:56.368Z,1000.34
2023-04-16T00:13:28.415Z,1000.34
2023-04-16T00:14:01.288Z,1000.34
2023-04-16T00:14:32.440Z,1000.34
2023-04-16T00:15:04.945Z,1000.44
2023-04-16T00:15:36.415Z,1000.44
2023-04-16T00:16:08.775Z,1000.24
2023-04-16T00:16:35.268Z,1000.34
2023-04-16T00:16:56.582Z,1000.34
2023-04-16T00:17:28.452Z,1000.34
2023-04-16T00:18:01.295Z,1000.34
2023-04-16T00:18:32.481Z,1000.34
2023-04-16T00:19:04.524Z,1000.34
2023-04-16T00:19:36.431Z,1000.34
2023-04-16T00:20:08.787Z,999.93
2023-04-16T00:20:34.667Z,1000.13
2023-04-16T00:20:56.624Z,1000.13
2023-04-16T00:21:28.418Z,1000.13
2023-04-16T00:22:00.941Z,1000.24
2023-04-16T00:22:32.421Z,1000.24
2023-04-16T00:23:04.386Z,1000.24
2023-04-16T00:23:37.045Z,1000.24
2023-04-16T00:24:08.375Z,1000.54
2023-04-16T00:24:34.654Z,1000.34
2023-04-16T00:24:56.419Z,1000.34
2023-04-16T00:25:28.698Z,1000.34
2023-04-16T00:26:01.058Z,1000.34
2023-04-16T00:26:32.380Z,1000.34
2023-04-16T00:27:04.528Z,1000.24
2023-04-16T00:27:36.382Z,1000.24
2023-04-16T00:28:10.048Z,1000.24
2023-04-16T00:28:34.598Z,1000.13
2023-04-16T00:28:56.335Z,1000.13
2023-04-16T00:29:28.362Z,1000.13
2023-04-16T00:30:03.539Z,1000.44
2023-04-16T00:30:32.410Z,1000.44
2023-04-16T00:31:04.382Z,1000.44
2023-04-16T00:31:36.327Z,1000.44
2023-04-16T00:32:08.382Z,1000.54
2023-04-16T00:32:34.654Z,1000.44
2023-04-16T00:32:56.355Z,1000.44
2023-04-16T00:33:28.372Z,1000.44
2023-04-16T00:34:00.991Z,1000.54
2023-04-16T00:34:32.405Z,1000.54
2023-04-16T00:35:04.629Z,1000.44
2023-04-16T00:35:36.354Z,1000.44
2023-04-16T00:36:08.380Z,1000.44
2023-04-16T00:36:34.618Z,1000.54
2023-04-16T00:36:56.338Z,1000.54
2023-04-16T00:37:28.345Z,1000.54
2023-04-16T00:38:01.013Z,1000.34
2023-04-16T00:38:32.336Z,1000.34
2023-04-16T00:39:04.329Z,1000.44
2023-04-16T00:39:37.105Z,1000.44
2023-04-16T00:40:08.763Z,1000.44
2023-04-16T00:40:35.103Z,1000.34
2023-04-16T00:40:56.863Z,1000.34
2023-04-16T00:41:28.599Z,1000.34
2023-04-16T00:42:00.975Z,1000.44
2023-04-16T00:42:33.365Z,1000.44
2023-04-16T00:43:04.616Z,1000.13
2023-04-16T00:43:36.508Z,1000.13
2023-04-16T00:44:09.468Z,1000.24
2023-04-16T00:44:35.414Z,1000.24
2023-04-16T00:44:56.566Z,1000.24
2023-04-16T00:45:29.002Z,1000.24
2023-04-16T00:46:03.453Z,1000.54
2023-04-16T00:46:32.597Z,1000.54
2023-04-16T00:47:04.748Z,1000.54
2023-04-16T00:47:36.584Z,1000.54
2023-04-16T00:48:08.541Z,1000.54
2023-04-16T00:48:34.811Z,1000.34
2023-04-16T00:48:57.379Z,1000.34
2023-04-16T00:49:28.415Z,1000.34
2023-04-16T00:50:01.754Z,1000.54
2023-04-16T00:50:32.605Z,1000.54
2023-04-16T00:51:04.454Z,1000.44
2023-04-16T00:51:36.490Z,1000.44
2023-04-16T00:52:08.328Z,1000.44
2023-04-16T00:52:34.654Z,1000.61
2023-04-16T00:52:56.371Z,1000.61
2023-04-16T00:53:28.367Z,1000.61
2023-04-16T00:54:00.937Z,1000.34
2023-04-16T00:54:32.720Z,1000.34
2023-04-16T00:55:04.723Z,1000.61
2023-04-16T00:55:37.265Z,1000.61
2023-04-16T00:56:08.405Z,1000.44
2023-04-16T00:56:34.660Z,1000.34
2023-04-16T00:56:56.415Z,1000.34
2023-04-16T00:57:28.411Z,1000.34
2023-04-16T00:58:01.111Z,1000.54
2023-04-16T00:58:32.399Z,1000.54
2023-04-16T00:59:04.410Z,1000.54
2023-04-16T00:59:36.698Z,1000.54
2023-04-16T01:00:12.941Z,1000.44
2023-04-16T01:00:34.698Z,1000.54
2023-04-16T01:00:56.689Z,1000.54
2023-04-16T01:01:28.422Z,1000.54
2023-04-16T01:02:01.556Z,1000.34
2023-04-16T01:02:32.501Z,1000.34
2023-04-16T01:03:04.493Z,1000.34
2023-04-16T01:03:36.537Z,1000.34
2023-04-16T01:04:08.465Z,1000.44
2023-04-16T01:04:34.693Z,1000.34
2023-04-16T01:04:56.364Z,1000.34
2023-04-16T01:05:28.726Z,1000.34
2023-04-16T01:06:01.012Z,1000.44
2023-04-16T01:06:32.449Z,1000.44
2023-04-16T01:07:04.409Z,1000.54
2023-04-16T01:07:36.401Z,1000.54
2023-04-16T01:08:08.392Z,1000.34
2023-04-16T01:08:34.667Z,1000.44
2023-04-16T01:08:56.403Z,1000.44
2023-04-16T01:09:28.419Z,1000.44
2023-04-16T01:10:03.360Z,1000.61
2023-04-16T01:10:32.410Z,1000.61
2023-04-16T01:11:04.368Z,1000.44
2023-04-16T01:11:37.483Z,1000.44
2023-04-16T01:12:08.377Z,1000.54
2023-04-16T01:12:34.662Z,1000.34
2023-04-16T01:12:56.429Z,1000.34
2023-04-16T01:13:28.395Z,1000.34
2023-04-16T01:14:00.964Z,1000.54
2023-04-16T01:14:32.434Z,1000.54
2023-04-16T01:15:04.920Z,1000.54
2023-04-16T01:15:36.395Z,1000.54
2023-04-16T01:16:08.619Z,1000.34
2023-04-16T01:16:34.663Z,1000.44
2023-04-16T01:16:56.414Z,1000.44
2023-04-16T01:17:28.728Z,1000.44
2023-04-16T01:18:01.815Z,1000.34
2023-04-16T01:18:32.537Z,1000.34
2023-04-16T01:19:04.357Z,1000.34
2023-04-16T01:19:36.400Z,1000.34
2023-04-16T01:20:08.703Z,1000.34
2023-04-16T01:20:34.695Z,1000.61
2023-04-16T01:20:56.656Z,1000.61
2023-04-16T01:21:28.422Z,1000.61
2023-04-16T01:22:00.921Z,1000.44
2023-04-16T01:22:32.459Z,1000.44
2023-04-16T01:23:04.388Z,1000.61
2023-04-16T01:23:36.401Z,1000.61
2023-04-16T01:24:08.391Z,1000.61
2023-04-16T01:24:34.677Z,1000.54
2023-04-16T01:24:56.366Z,1000.54
2023-04-16T01:25:28.637Z,1000.54
2023-04-16T01:26:00.924Z,1000.44
2023-04-16T01:26:32.422Z,1000.44
2023-04-16T01:27:04.377Z,1000.61
2023-04-16T01:27:37.160Z,1000.61
2023-04-16T01:28:08.386Z,1000.54
2023-04-16T01:28:34.656Z,1000.44
2023-04-16T01:28:56.384Z,1000.44
2023-04-16T01:29:28.403Z,1000.44
2023-04-16T01:30:03.108Z,1000.44
2023-04-16T01:30:32.457Z,1000.44
2023-04-16T01:31:04.476Z,1000.54
2023-04-16T01:31:36.387Z,1000.54
2023-04-16T01:32:08.393Z,1000.71
2023-04-16T01:32:34.789Z,1000.54
2023-04-16T01:32:56.446Z,1000.54
2023-04-16T01:33:28.342Z,1000.54
2023-04-16T01:34:01.523Z,1000.61
2023-04-16T01:34:32.340Z,1000.61
2023-04-16T01:35:04.617Z,1000.44
2023-04-16T01:35:36.345Z,1000.44
2023-04-16T01:36:08.367Z,1000.54
2023-04-16T01:36:34.614Z,1000.44
2023-04-16T01:36:56.360Z,1000.44
2023-04-16T01:37:28.375Z,1000.44
2023-04-16T01:38:00.937Z,1000.54
2023-04-16T01:38:32.385Z,1000.54
2023-04-16T01:39:04.322Z,1000.54
2023-04-16T01:39:36.370Z,1000.54
2023-04-16T01:40:08.709Z,1000.54
2023-04-16T01:40:34.645Z,1000.54
2023-04-16T01:40:56.548Z,1000.54
2023-04-16T01:41:28.424Z,1000.54
2023-04-16T01:42:00.863Z,1000.54
2023-04-16T01:42:32.371Z,1000.54
2023-04-16T01:43:04.324Z,1000.81
2023-04-16T01:43:39.599Z,1000.81
2023-04-16T01:44:08.332Z,1000.71
2023-04-16T01:44:34.643Z,1000.71
2023-04-16T01:44:56.368Z,1000.71
2023-04-16T01:45:28.912Z,1000.71
2023-04-16T01:46:01.070Z,1000.81
2023-04-16T01:46:32.470Z,1000.81
2023-04-16T01:47:04.492Z,1000.71
2023-04-16T01:47:36.359Z,1000.71
2023-04-16T01:48:08.386Z,1000.61
2023-04-16T01:48:34.632Z,1000.81
2023-04-16T01:48:56.340Z,1000.81
2023-04-16T01:49:28.345Z,1000.81
2023-04-16T01:50:03.316Z,1000.71
2023-04-16T01:50:32.340Z,1000.71
2023-04-16T01:51:04.321Z,1000.71
2023-04-16T01:51:36.611Z,1000.71
2023-04-16T01:52:08.353Z,1000.61
2023-04-16T01:52:34.655Z,1000.81
2023-04-16T01:52:56.403Z,1000.81
2023-04-16T01:53:28.373Z,1000.81
2023-04-16T01:54:00.883Z,1000.61
2023-04-16T01:54:32.374Z,1000.61
2023-04-16T01:55:04.651Z,1000.81
2023-04-16T01:55:36.362Z,1000.81
2023-04-16T01:56:08.350Z,1000.71
2023-04-16T01:56:34.633Z,1000.71
2023-04-16T01:56:56.325Z,1000.71
2023-04-16T01:57:28.335Z,1000.71
2023-04-16T01:58:00.947Z,1000.71
2023-04-16T01:58:32.357Z,1000.71
2023-04-16T01:59:04.325Z,1000.81
2023-04-16T01:59:37.034Z,1000.81
2023-04-16T02:00:08.872Z,1000.71
2023-04-16T02:00:35.317Z,1000.61
2023-04-16T02:00:56.648Z,1000.61
2023-04-16T02:01:28.403Z,1000.61
2023-04-16T02:02:01.387Z,1000.71
2023-04-16T02:02:32.453Z,1000.71
2023-04-16T02:03:04.551Z,1000.71
2023-04-16T02:03:36.502Z,1000.71
2023-04-16T02:04:08.398Z,1000.71
2023-04-16T02:04:34.595Z,1000.61
2023-04-16T02:04:56.344Z,1000.61
2023-04-16T02:05:28.645Z,1000.61
2023-04-16T02:06:01.447Z,1000.61
2023-04-16T02:06:32.339Z,1000.61
2023-04-16T02:07:04.315Z,1000.71
2023-04-16T02:07:36.329Z,1000.71
2023-04-16T02:08:08.323Z,1000.61
2023-04-16T02:08:34.606Z,1000.54
2023-04-16T02:08:56.342Z,1000.54
2023-04-16T02:09:28.377Z,1000.54
2023-04-16T02:10:02.752Z,1000.54
2023-04-16T02:10:32.367Z,1000.54
2023-04-16T02:11:04.313Z,1000.61
2023-04-16T02:11:36.344Z,1000.61
2023-04-16T02:12:08.373Z,1000.54
2023-04-16T02:12:34.592Z,1000.71
2023-04-16T02:12:56.319Z,1000.71
2023-04-16T02:13:28.340Z,1000.71
2023-04-16T02:14:00.911Z,1000.61
2023-04-16T02:14:32.344Z,1000.61
2023-04-16T02:15:04.884Z,1000.61
2023-04-16T02:15:37.136Z,1000.61
2023-04-16T02:16:08.611Z,1000.71
2023-04-16T02:16:35.065Z,1000.61
2023-04-16T02:16:56.504Z,1000.61
2023-04-16T02:17:28.455Z,1000.61
2023-04-16T02:18:00.939Z,1000.71
2023-04-16T02:18:32.403Z,1000.71
2023-04-16T02:19:04.450Z,1000.71
2023-04-16T02:19:36.301Z,1000.71
2023-04-16T02:20:08.647Z,1000.71
2023-04-16T02:20:34.601Z,1000.61
2023-04-16T02:20:56.607Z,1000.61
2023-04-16T02:21:28.316Z,1000.61
2023-04-16T02:22:01.510Z,1000.54
2023-04-16T02:22:32.356Z,1000.54
2023-04-16T02:23:04.317Z,1000.71
2023-04-16T02:23:36.314Z,1000.71
2023-04-16T02:24:08.327Z,1000.61
2023-04-16T02:24:35.123Z,1000.54
2023-04-16T02:24:56.342Z,1000.54
2023-04-16T02:25:28.646Z,1000.54
2023-04-16T02:26:00.964Z,1000.54
2023-04-16T02:26:32.346Z,1000.54
2023-04-16T02:27:04.342Z,1000.61
2023-04-16T02:27:36.442Z,1000.61
2023-04-16T02:28:08.320Z,1000.71
2023-04-16T02:28:34.606Z,1000.71
2023-04-16T02:28:56.326Z,1000.71
2023-04-16T02:29:28.341Z,1000.71
2023-04-16T02:30:03.122Z,1000.61
2023-04-16T02:30:32.342Z,1000.61
2023-04-16T02:31:04.317Z,1000.71
2023-04-16T02:31:37.090Z,1000.71
2023-04-16T02:32:08.680Z,1000.61
2023-04-16T02:32:34.854Z,1000.71
2023-04-16T02:32:56.357Z,1000.71
2023-04-16T02:33:28.357Z,1000.71
2023-04-16T02:34:00.835Z,1000.71
2023-04-16T02:34:32.338Z,1000.71
2023-04-16T02:35:04.616Z,1000.61
2023-04-16T02:35:36.752Z,1000.61
2023-04-16T02:36:08.331Z,1000.61
2023-04-16T02:36:34.600Z,1000.71
2023-04-16T02:36:56.365Z,1000.71
2023-04-16T02:37:28.344Z,1000.71
2023-04-16T02:38:01.636Z,1000.71
2023-04-16T02:38:32.345Z,1000.71
2023-04-16T02:39:04.322Z,1000.61
2023-04-16T02:39:36.307Z,1000.61
2023-04-16T02:40:08.643Z,1000.61
2023-04-16T02:40:34.605Z,1000.81
2023-04-16T02:40:56.700Z,1000.81
2023-04-16T02:41:28.335Z,1000.81
2023-04-16T02:42:00.895Z,1000.91
2023-04-16T02:42:32.356Z,1000.91
2023-04-16T02:43:04.306Z,1000.81
2023-04-16T02:43:36.646Z,1000.81
2023-04-16T02:44:08.365Z,1000.71
2023-04-16T02:44:35.197Z,1000.71
2023-04-16T02:44:56.312Z,1000.71
2023-04-16T02:45:28.828Z,1000.71
2023-04-16T02:46:01.184Z,1000.81
2023-04-16T02:46:32.319Z,1000.81
2023-04-16T02:47:04.311Z,1000.61
2023-04-16T02:47:37.130Z,1000.61
2023-04-16T02:48:08.321Z,1000.61
2023-04-16T02:48:34.620Z,1000.61
2023-04-16T02:48:56.364Z,1000.61
2023-04-16T02:49:28.329Z,1000.61
2023-04-16T02:50:02.899Z,1000.71
2023-04-16T02:50:32.349Z,1000.71
2023-04-16T02:51:04.379Z,1000.71
2023-04-16T02:51:36.317Z,1000.71
2023-04-16T02:52:08.337Z,1000.71
2023-04-16T02:52:34.631Z,1000.81
2023-04-16T02:52:56.325Z,1000.81
2023-04-16T02:53:28.328Z,1000.81
2023-04-16T02:54:01.599Z,1000.61
2023-04-16T02:54:32.300Z,1000.61
2023-04-16T02:55:04.577Z,1000.54
2023-04-16T02:55:36.316Z,1000.54
2023-04-16T02:56:08.346Z,1000.91
2023-04-16T02:56:34.610Z,1000.61
2023-04-16T02:56:56.371Z,1000.61
2023-04-16T02:57:28.329Z,1000.61
2023-04-16T02:58:00.463Z,1000.91
2023-04-16T02:58:32.352Z,1000.91
2023-04-16T02:59:04.358Z,1000.91
2023-04-16T02:59:36.347Z,1000.91
2023-04-16T03:00:09.057Z,1000.81
2023-04-16T03:00:34.614Z,1000.91
2023-04-16T03:00:56.594Z,1000.91
2023-04-16T03:01:28.377Z,1000.91
2023-04-16T03:02:00.911Z,1000.71
2023-04-16T03:02:32.405Z,1000.71
2023-04-16T03:03:04.333Z,1000.81
2023-04-16T03:03:37.108Z,1000.81
2023-04-16T03:04:08.328Z,1000.71
2023-04-16T03:04:34.674Z,1000.81
2023-04-16T03:04:56.336Z,1000.81
2023-04-16T03:05:28.633Z,1000.81
2023-04-16T03:06:00.624Z,1000.81
2023-04-16T03:06:32.301Z,1000.81
2023-04-16T03:07:04.326Z,1000.71
2023-04-16T03:07:36.375Z,1000.71
2023-04-16T03:08:08.354Z,1000.81
2023-04-16T03:08:34.712Z,1000.81
2023-04-16T03:08:56.325Z,1000.81
2023-04-16T03:09:28.337Z,1000.81
2023-04-16T03:10:03.555Z,1000.71
2023-04-16T03:10:32.346Z,1000.71
2023-04-16T03:11:04.311Z,1000.81
2023-04-16T03:11:36.314Z,1000.81
2023-04-16T03:12:08.437Z,1000.81
2023-04-16T03:12:34.614Z,1000.81
2023-04-16T03:12:56.323Z,1000.81
2023-04-16T03:13:28.354Z,1000.81
2023-04-16T03:14:00.927Z,1001.12
2023-04-16T03:14:32.341Z,1001.12
2023-04-16T03:15:04.859Z,1000.91
2023-04-16T03:15:36.400Z,1000.91
2023-04-16T03:16:08.573Z,1000.91
2023-04-16T03:16:34.610Z,1000.81
2023-04-16T03:16:56.304Z,1000.81
2023-04-16T03:17:28.378Z,1000.81
2023-04-16T03:18:00.789Z,1000.71
2023-04-16T03:18:32.303Z,1000.71
2023-04-16T03:19:04.295Z,1000.81
2023-04-16T03:19:37.121Z,1000.81
2023-04-16T03:20:08.671Z,1000.81
2023-04-16T03:20:35.004Z,1000.91
2023-04-16T03:20:56.609Z,1000.91
2023-04-16T03:21:28.323Z,1000.91
2023-04-16T03:22:00.397Z,1000.81
2023-04-16T03:22:32.334Z,1000.81
2023-04-16T03:23:04.317Z,1000.91
2023-04-16T03:23:36.311Z,1000.91
2023-04-16T03:24:08.356Z,1000.91
2023-04-16T03:24:34.603Z,1000.81
2023-04-16T03:24:56.307Z,1000.81
2023-04-16T03:25:28.624Z,1000.81
2023-04-16T03:26:01.495Z,1000.81
2023-04-16T03:26:32.291Z,1000.81
2023-04-16T03:27:04.300Z,1000.81
2023-04-16T03:27:36.353Z,1000.81
2023-04-16T03:28:08.327Z,1001.01
2023-04-16T03:28:35.337Z,1000.91
2023-04-16T03:28:56.365Z,1000.91
2023-04-16T03:29:28.358Z,1000.91
2023-04-16T03:30:02.858Z,1000.91
2023-04-16T03:30:32.360Z,1000.91
2023-04-16T03:31:04.461Z,1000.91
2023-04-16T03:31:36.545Z,1000.91
2023-04-16T03:32:08.355Z,1000.81
2023-04-16T03:32:34.647Z,1000.71
2023-04-16T03:32:56.396Z,1000.71
2023-04-16T03:33:28.314Z,1000.71
2023-04-16T03:34:00.426Z,1000.81
2023-04-16T03:34:32.319Z,1000.81
2023-04-16T03:35:04.649Z,1000.71
2023-04-16T03:35:37.302Z,1000.71
2023-04-16T03:36:08.340Z,1001.01
2023-04-16T03:36:35.005Z,1000.81
2023-04-16T03:36:56.348Z,1000.81
2023-04-16T03:37:28.341Z,1000.81
2023-04-16T03:38:01.185Z,1000.91
2023-04-16T03:38:32.323Z,1000.91
2023-04-16T03:39:04.326Z,1000.91
2023-04-16T03:39:36.339Z,1000.91
2023-04-16T03:40:08.632Z,1000.81
2023-04-16T03:40:34.625Z,1001.01
2023-04-16T03:40:56.574Z,1001.01
2023-04-16T03:41:28.435Z,1001.01
2023-04-16T03:42:01.597Z,1001.01
2023-04-16T03:42:32.328Z,1001.01
2023-04-16T03:43:04.300Z,1000.91
2023-04-16T03:43:36.408Z,1000.91
2023-04-16T03:44:08.290Z,1000.81
2023-04-16T03:44:34.584Z,1001.01
2023-04-16T03:44:56.308Z,1001.01
2023-04-16T03:45:31.791Z,1001.01
2023-04-16T03:46:04.212Z,1000.81
2023-04-16T03:46:32.511Z,1000.81
2023-04-16T03:47:04.272Z,1000.81
2023-04-16T03:47:36.413Z,1000.81
2023-04-16T03:48:08.329Z,1001.12
2023-04-16T03:48:34.684Z,1001.01
2023-04-16T03:48:56.324Z,1001.01
2023-04-16T03:49:28.302Z,1001.01
2023-04-16T03:50:01.236Z,1001.12
2023-04-16T03:50:32.349Z,1001.12
2023-04-16T03:51:04.300Z,1001.12
2023-04-16T03:51:38.131Z,1001.12
2023-04-16T03:52:08.308Z,1001.01
2023-04-16T03:52:34.714Z,1001.01
2023-04-16T03:52:56.348Z,1001.01
2023-04-16T03:53:28.307Z,1001.01
2023-04-16T03:54:00.376Z,1000.91
2023-04-16T03:54:32.333Z,1000.91
2023-04-16T03:55:04.570Z,1001.12
2023-04-16T03:55:36.431Z,1001.12
2023-04-16T03:56:08.402Z,1001.01
2023-04-16T03:56:34.575Z,1001.01
2023-04-16T03:56:56.316Z,1001.01
2023-04-16T03:57:28.313Z,1001.01
2023-04-16T03:58:01.742Z,1001.12
2023-04-16T03:58:32.301Z,1001.12
2023-04-16T03:59:04.277Z,1001.22
2023-04-16T03:59:36.364Z,1001.22
2023-04-16T04:00:09.089Z,1001.01
2023-04-16T04:00:34.601Z,1001.01
2023-04-16T04:00:56.774Z,1001.01
2023-04-16T04:01:28.334Z,1001.01
2023-04-16T04:02:00.425Z,1001.01
2023-04-16T04:02:31.950Z,1001.01
2023-04-16T04:03:04.224Z,1001.01
2023-04-16T04:03:36.238Z,1001.01
2023-04-16T04:04:07.915Z,1001.12
2023-04-16T04:04:34.288Z,1001.01
2023-04-16T04:04:55.840Z,1001.01
2023-04-16T04:05:28.153Z,1001.01
2023-04-16T04:05:59.802Z,1001.12
2023-04-16T04:06:33.798Z,1001.12
2023-04-16T04:07:05.649Z,1001.01
2023-04-16T04:07:37.111Z,1001.01
2023-04-16T04:08:08.852Z,1001.01
2023-04-16T04:08:34.586Z,1000.91
2023-04-16T04:08:56.356Z,1000.91
2023-04-16T04:09:28.381Z,1000.91
2023-04-16T04:10:00.965Z,1001.12
2023-04-16T04:10:33.787Z,1001.12
2023-04-16T04:11:04.755Z,1001.12
2023-04-16T04:11:36.352Z,1001.12
2023-04-16T04:12:08.870Z,1001.12
2023-04-16T04:12:34.609Z,1001.12
2023-04-16T04:12:56.322Z,1001.12
2023-04-16T04:13:28.401Z,1001.12
2023-04-16T04:14:01.143Z,1001.01
2023-04-16T04:14:32.301Z,1001.01
2023-04-16T04:15:04.831Z,1000.81
2023-04-16T04:15:36.302Z,1000.81
2023-04-16T04:16:09.201Z,1000.91
2023-04-16T04:16:34.657Z,1001.01
2023-04-16T04:16:56.302Z,1001.01
2023-04-16T04:17:28.411Z,1001.01
2023-04-16T04:18:00.378Z,1000.91
2023-04-16T04:18:32.318Z,1000.91
2023-04-16T04:19:04.283Z,1001.22
2023-04-16T04:19:38.829Z,1001.22
2023-04-16T04:20:09.248Z,1001.01
2023-04-16T04:20:34.594Z,1001.12
2023-04-16T04:20:56.545Z,1001.12
2023-04-16T04:21:28.363Z,1001.12
2023-04-16T04:22:00.403Z,1001.12
2023-04-16T04:22:32.318Z,1001.12
2023-04-16T04:23:04.481Z,1000.91
2023-04-16T04:23:37.942Z,1000.91
2023-04-16T04:24:08.850Z,1001.01
2023-04-16T04:24:35.069Z,1001.22
2023-04-16T04:24:56.338Z,1001.22
2023-04-16T04:25:28.602Z,1001.22
2023-04-16T04:26:00.344Z,1001.22
2023-04-16T04:26:32.406Z,1001.22
2023-04-16T04:27:04.332Z,1001.22
2023-04-16T04:27:36.677Z,1001.22
2023-04-16T04:28:09.058Z,1001.22
2023-04-16T04:28:35.077Z,1001.22
2023-04-16T04:28:56.310Z,1001.22
2023-04-16T04:29:28.350Z,1001.22
2023-04-16T04:30:03.351Z,1001.22
2023-04-16T04:30:32.321Z,1001.22
2023-04-16T04:31:04.329Z,1001.12
2023-04-16T04:31:36.330Z,1001.12
2023-04-16T04:32:09.008Z,1001.22
2023-04-16T04:32:34.628Z,1001.22
2023-04-16T04:32:56.386Z,1001.22
2023-04-16T04:33:28.550Z,1001.22
2023-04-16T04:34:00.330Z,1001.32
2023-04-16T04:34:32.313Z,1001.32
2023-04-16T04:35:04.769Z,1001.32
2023-04-16T04:35:36.345Z,1001.32
2023-04-16T04:36:08.830Z,1001.32
2023-04-16T04:36:34.610Z,1001.22
2023-04-16T04:36:56.301Z,1001.22
2023-04-16T04:37:28.358Z,1001.22
2023-04-16T04:38:01.495Z,1001.12
2023-04-16T04:38:32.300Z,1001.12
2023-04-16T04:39:04.319Z,1001.12
2023-04-16T04:39:37.003Z,1001.12
2023-04-16T04:40:09.317Z,1001.22
2023-04-16T04:40:34.770Z,1001.22
2023-04-16T04:40:56.590Z,1001.22
2023-04-16T04:41:28.386Z,1001.22
2023-04-16T04:42:00.349Z,1001.62
2023-04-16T04:42:32.291Z,1001.62
2023-04-16T04:43:04.327Z,1001.32
2023-04-16T04:43:36.354Z,1001.32
2023-04-16T04:44:08.866Z,1001.22
2023-04-16T04:44:35.082Z,1001.22
2023-04-16T04:44:56.283Z,1001.22
2023-04-16T04:45:31.674Z,1001.22
2023-04-16T04:46:02.815Z,1001.52
2023-04-16T04:46:32.288Z,1001.52
2023-04-16T04:47:04.281Z,1001.22
2023-04-16T04:47:36.313Z,1001.22
2023-04-16T04:48:08.992Z,1001.32
2023-04-16T04:48:34.593Z,1001.32
2023-04-16T04:48:56.291Z,1001.32
2023-04-16T04:49:28.389Z,1001.32
2023-04-16T04:50:00.818Z,1001.52
2023-04-16T04:50:32.374Z,1001.52
2023-04-16T04:51:05.166Z,1001.32
2023-04-16T04:51:36.318Z,1001.32
2023-04-16T04:52:08.898Z,1001.32
2023-04-16T04:52:34.597Z,1001.22
2023-04-16T04:52:56.295Z,1001.22
2023-04-16T04:53:28.361Z,1001.22
2023-04-16T04:54:00.313Z,1001.42
2023-04-16T04:54:32.283Z,1001.42
2023-04-16T04:55:04.624Z,1001.32
2023-04-16T04:55:37.084Z,1001.32
2023-04-16T04:56:12.825Z,1001.42
2023-04-16T04:56:34.596Z,1001.22
2023-04-16T04:56:56.325Z,1001.22
2023-04-16T04:57:28.352Z,1001.22
2023-04-16T04:58:00.408Z,1001.42
2023-04-16T04:58:32.338Z,1001.42
2023-04-16T04:59:04.339Z,1001.42
2023-04-16T04:59:36.293Z,1001.42
2023-04-16T05:00:10.745Z,1001.42
2023-04-16T05:00:34.607Z,1001.22
2023-04-16T05:00:56.626Z,1001.22
2023-04-16T05:01:28.416Z,1001.22
2023-04-16T05:02:01.159Z,1001.42
2023-04-16T05:02:32.321Z,1001.42
2023-04-16T05:03:04.346Z,1001.32
2023-04-16T05:03:36.456Z,1001.32
2023-04-16T05:04:08.944Z,1001.22
2023-04-16T05:04:34.748Z,1001.62
2023-04-16T05:04:56.455Z,1001.62
2023-04-16T05:05:28.738Z,1001.62
2023-04-16T05:06:00.350Z,1001.52
2023-04-16T05:06:32.413Z,1001.52
2023-04-16T05:07:04.489Z,1001.32
2023-04-16T05:07:36.455Z,1001.32
2023-04-16T05:08:08.920Z,1001.52
2023-04-16T05:08:35.089Z,1001.42
2023-04-16T05:08:56.438Z,1001.42
2023-04-16T05:09:28.486Z,1001.42
2023-04-16T05:10:00.845Z,1001.52
2023-04-16T05:10:32.364Z,1001.52
2023-04-16T05:11:04.687Z,1001.52
2023-04-16T05:11:37.181Z,1001.52
2023-04-16T05:12:09.038Z,1001.42
2023-04-16T05:12:34.803Z,1001.32
2023-04-16T05:12:56.465Z,1001.32
2023-04-16T05:13:28.452Z,1001.32
2023-04-16T05:14:00.459Z,1001.52
2023-04-16T05:14:32.425Z,1001.52
2023-04-16T05:15:04.948Z,1001.52
2023-04-16T05:15:36.472Z,1001.52
2023-04-16T05:16:09.356Z,1001.42
2023-04-16T05:16:34.733Z,1001.62
2023-04-16T05:16:56.498Z,1001.62
2023-04-16T05:17:28.463Z,1001.62
2023-04-16T05:18:01.129Z,1001.52
2023-04-16T05:18:32.417Z,1001.52
2023-04-16T05:19:04.451Z,1001.52
2023-04-16T05:19:36.952Z,1001.52
2023-04-16T05:20:09.196Z,1001.62
2023-04-16T05:20:34.703Z,1001.42
2023-04-16T05:20:56.667Z,1001.42
2023-04-16T05:21:28.517Z,1001.42
2023-04-16T05:22:00.513Z,1001.73
2023-04-16T05:22:32.446Z,1001.73
2023-04-16T05:23:04.656Z,1001.83
2023-04-16T05:23:36.444Z,1001.83
2023-04-16T05:24:09.016Z,1001.73
2023-04-16T05:24:35.302Z,1001.73
2023-04-16T05:24:56.460Z,1001.73
2023-04-16T05:25:28.714Z,1001.73
2023-04-16T05:26:00.447Z,1001.62
2023-04-16T05:26:32.388Z,1001.62
2023-04-16T05:27:04.441Z,1001.73
2023-04-16T05:27:37.240Z,1001.73
2023-04-16T05:28:08.937Z,1001.73
2023-04-16T05:28:35.164Z,1001.62
2023-04-16T05:28:56.453Z,1001.62
2023-04-16T05:29:28.450Z,1001.62
2023-04-16T05:30:02.940Z,1001.73
2023-04-16T05:30:32.546Z,1001.73
2023-04-16T05:31:04.591Z,1001.83
2023-04-16T05:31:36.455Z,1001.83
2023-04-16T05:32:09.014Z,1001.83
2023-04-16T05:32:34.680Z,1001.73
2023-04-16T05:32:56.485Z,1001.73
2023-04-16T05:33:28.456Z,1001.73
2023-04-16T05:34:02.094Z,1001.83
2023-04-16T05:34:32.419Z,1001.83
2023-04-16T05:35:04.772Z,1001.62
2023-04-16T05:35:36.354Z,1001.62
2023-04-16T05:36:08.967Z,1001.73
2023-04-16T05:36:34.636Z,1001.62
2023-04-16T05:36:56.431Z,1001.62
2023-04-16T05:37:28.460Z,1001.62
2023-04-16T05:38:00.462Z,1001.93
2023-04-16T05:38:32.487Z,1001.93
2023-04-16T05:39:04.444Z,1001.83
2023-04-16T05:39:36.474Z,1001.83
2023-04-16T05:40:09.255Z,1002.03
2023-04-16T05:40:34.651Z,1001.83
2023-04-16T05:40:57.591Z,1001.83
2023-04-16T05:41:28.438Z,1001.83
2023-04-16T05:42:00.472Z,1002.03
2023-04-16T05:42:32.413Z,1002.03
2023-04-16T05:43:04.419Z,1001.83
2023-04-16T05:43:37.332Z,1001.83
2023-04-16T05:44:08.885Z,1001.73
2023-04-16T05:44:34.681Z,1001.93
2023-04-16T05:44:56.485Z,1001.93
2023-04-16T05:45:28.964Z,1001.93
2023-04-16T05:46:00.554Z,1001.93
2023-04-16T05:46:32.465Z,1001.93
2023-04-16T05:47:04.456Z,1001.83
2023-04-16T05:47:36.532Z,1001.83
2023-04-16T05:48:09.036Z,1002.03
2023-04-16T05:48:34.689Z,1001.93
2023-04-16T05:48:56.436Z,1001.93
2023-04-16T05:49:28.493Z,1001.93
2023-04-16T05:50:03.046Z,1002.03
2023-04-16T05:50:32.375Z,1002.03
2023-04-16T05:51:04.393Z,1002.03
2023-04-16T05:51:36.410Z,1002.03
2023-04-16T05:52:08.906Z,1002.03
2023-04-16T05:52:34.688Z,1001.93
2023-04-16T05:52:56.426Z,1001.93
2023-04-16T05:53:28.443Z,1001.93
2023-04-16T05:54:00.493Z,1001.93
2023-04-16T05:54:32.473Z,1001.93
2023-04-16T05:55:04.734Z,1001.83
2023-04-16T05:55:36.453Z,1001.83
2023-04-16T05:56:08.887Z,1001.83
2023-04-16T05:56:34.703Z,1001.93
2023-04-16T05:56:56.716Z,1001.93
2023-04-16T05:57:28.488Z,1001.93
2023-04-16T05:58:00.449Z,1002.03
2023-04-16T05:58:32.356Z,1002.03
2023-04-16T05:59:04.402Z,1002.03
2023-04-16T05:59:37.381Z,1002.03
2023-04-16T06:00:10.899Z,1002.03
2023-04-16T06:00:35.234Z,1001.93
2023-04-16T06:00:56.751Z,1001.93
2023-04-16T06:01:28.442Z,1001.93
2023-04-16T06:02:00.499Z,1002.03
2023-04-16T06:02:32.590Z,1002.03